Current Weather

Caldwell Muni

Caldwell, Texas (KRWV)

Report from: Sunday, February 5, 2023 3:15 AM UTC
Current time: Sunday, February 5, 2023 3:56 AM UTC

Nearby weather
Weather history
Weather forecast

Temperature11.1°C (52.0°F)
Dew point7.7°C (45.9°F)
Winds 6 kts (3.1 m/s, 6.9 mph) South (170°)
Visibility10 mi. (16.1 km)
Clouds Sky clear
Altimeter30.26 in.Hg (1025 mB)
Relative humidity80 %
Density altitude-702 ft. (-214 m)
Remarks Fully automated report
Automated weather observing station with precipitation discriminator
Flight conditions Visual Meteorological Conditions
Raw dataKRWV 050315Z AUTO 17006KT 10SM CLR 11/08 A3026 RMK AO2 T01110077
An unhandled exception has occurred. See browser dev tools for details. Reload 🗙